sensor_id;sensor_type;location;lat;lon;timestamp;temperature;humidity
55211;DHT22;41082;52.822;6.666;2023-04-15T00:00:36;7.20;99.90
55211;DHT22;41082;52.822;6.666;2023-04-15T00:03:02;7.20;99.90
55211;DHT22;41082;52.822;6.666;2023-04-15T00:05:30;7.10;99.90
55211;DHT22;41082;52.822;6.666;2023-04-15T00:07:56;7.10;99.90
55211;DHT22;41082;52.822;6.666;2023-04-15T00:10:23;7.10;99.90
55211;DHT22;41082;52.822;6.666;2023-04-15T00:12:49;7.10;99.90
55211;DHT22;41082;52.822;6.666;2023-04-15T00:15:15;7.00;99.90
55211;DHT22;41082;52.822;6.666;2023-04-15T00:17:41;7.00;99.90
55211;DHT22;41082;52.822;6.666;2023-04-15T00:20:06;7.00;99.90
55211;DHT22;41082;52.822;6.666;2023-04-15T00:22:32;7.00;99.90
55211;DHT22;41082;52.822;6.666;2023-04-15T00:24:57;7.00;99.90
55211;DHT22;41082;52.822;6.666;2023-04-15T00:27:23;7.00;99.90
55211;DHT22;41082;52.822;6.666;2023-04-15T00:29:49;7.00;99.90
55211;DHT22;41082;52.822;6.666;2023-04-15T00:32:14;7.00;99.90
55211;DHT22;41082;52.822;6.666;2023-04-15T00:34:40;6.90;99.90
55211;DHT22;41082;52.822;6.666;2023-04-15T00:37:06;6.90;99.90
55211;DHT22;41082;52.822;6.666;2023-04-15T00:39:31;6.90;99.90
55211;DHT22;41082;52.822;6.666;2023-04-15T00:41:57;6.90;99.90
55211;DHT22;41082;52.822;6.666;2023-04-15T00:44:23;6.80;99.90
55211;DHT22;41082;52.822;6.666;2023-04-15T00:46:50;6.80;99.90
55211;DHT22;41082;52.822;6.666;2023-04-15T00:49:16;6.70;99.90
55211;DHT22;41082;52.822;6.666;2023-04-15T00:51:42;6.70;99.90
55211;DHT22;41082;52.822;6.666;2023-04-15T00:54:09;6.70;99.90
55211;DHT22;41082;52.822;6.666;2023-04-15T00:56:36;6.60;99.90
55211;DHT22;41082;52.822;6.666;2023-04-15T00:59:02;6.60;99.90
55211;DHT22;41082;52.822;6.666;2023-04-15T01:01:28;6.60;99.90
55211;DHT22;41082;52.822;6.666;2023-04-15T01:03:57;6.60;99.90
55211;DHT22;41082;52.822;6.666;2023-04-15T01:06:23;6.50;99.90
55211;DHT22;41082;52.822;6.666;2023-04-15T01:08:49;6.50;99.90
55211;DHT22;41082;52.822;6.666;2023-04-15T01:11:16;6.50;99.90
55211;DHT22;41082;52.822;6.666;2023-04-15T01:13:42;6.50;99.90
55211;DHT22;41082;52.822;6.666;2023-04-15T01:16:08;6.50;99.90
55211;DHT22;41082;52.822;6.666;2023-04-15T01:18:35;6.40;99.90
55211;DHT22;41082;52.822;6.666;2023-04-15T01:21:02;6.40;99.90
55211;DHT22;41082;52.822;6.666;2023-04-15T01:23:29;6.40;99.90
55211;DHT22;41082;52.822;6.666;2023-04-15T01:25:55;6.40;99.90
55211;DHT22;41082;52.822;6.666;2023-04-15T01:28:21;6.40;99.90
55211;DHT22;41082;52.822;6.666;2023-04-15T01:30:46;6.40;99.90
55211;DHT22;41082;52.822;6.666;2023-04-15T01:33:12;6.30;99.90
55211;DHT22;41082;52.822;6.666;2023-04-15T01:35:38;6.30;99.90
55211;DHT22;41082;52.822;6.666;2023-04-15T01:38:09;6.40;99.90
55211;DHT22;41082;52.822;6.666;2023-04-15T01:40:35;6.40;99.90
55211;DHT22;41082;52.822;6.666;2023-04-15T01:43:01;6.40;99.90
55211;DHT22;41082;52.822;6.666;2023-04-15T01:45:27;6.40;99.90
55211;DHT22;41082;52.822;6.666;2023-04-15T01:47:53;6.30;99.90
55211;DHT22;41082;52.822;6.666;2023-04-15T01:50:18;6.30;99.90
55211;DHT22;41082;52.822;6.666;2023-04-15T01:52:45;6.30;99.90
55211;DHT22;41082;52.822;6.666;2023-04-15T01:55:11;6.30;99.90
55211;DHT22;41082;52.822;6.666;2023-04-15T01:57:37;6.30;99.90
55211;DHT22;41082;52.822;6.666;2023-04-15T02:00:03;6.20;99.90
55211;DHT22;41082;52.822;6.666;2023-04-15T02:02:29;6.20;99.90
55211;DHT22;41082;52.822;6.666;2023-04-15T02:04:55;6.20;99.90
55211;DHT22;41082;52.822;6.666;2023-04-15T02:07:20;6.20;99.90
55211;DHT22;41082;52.822;6.666;2023-04-15T02:09:46;6.20;99.90
55211;DHT22;41082;52.822;6.666;2023-04-15T02:12:12;6.10;99.90
55211;DHT22;41082;52.822;6.666;2023-04-15T02:14:38;6.00;99.90
55211;DHT22;41082;52.822;6.666;2023-04-15T02:17:03;6.00;99.90
55211;DHT22;41082;52.822;6.666;2023-04-15T02:19:33;6.00;99.90
55211;DHT22;41082;52.822;6.666;2023-04-15T02:21:59;6.00;99.90
55211;DHT22;41082;52.822;6.666;2023-04-15T02:24:27;5.90;99.90
55211;DHT22;41082;52.822;6.666;2023-04-15T02:26:53;5.90;99.90
55211;DHT22;41082;52.822;6.666;2023-04-15T02:29:18;5.90;99.90
55211;DHT22;41082;52.822;6.666;2023-04-15T02:31:44;5.90;99.90
55211;DHT22;41082;52.822;6.666;2023-04-15T02:34:10;5.90;99.90
55211;DHT22;41082;52.822;6.666;2023-04-15T02:36:36;5.90;99.90
55211;DHT22;41082;52.822;6.666;2023-04-15T02:39:02;5.90;99.90
55211;DHT22;41082;52.822;6.666;2023-04-15T02:41:28;5.90;99.90
55211;DHT22;41082;52.822;6.666;2023-04-15T02:43:54;5.90;99.90
55211;DHT22;41082;52.822;6.666;2023-04-15T02:46:20;5.90;99.90
55211;DHT22;41082;52.822;6.666;2023-04-15T02:48:47;5.90;99.90
55211;DHT22;41082;52.822;6.666;2023-04-15T02:51:22;5.90;99.90
55211;DHT22;41082;52.822;6.666;2023-04-15T02:53:48;5.90;99.90
55211;DHT22;41082;52.822;6.666;2023-04-15T02:56:14;5.80;99.90
55211;DHT22;41082;52.822;6.666;2023-04-15T02:58:42;5.90;99.90
55211;DHT22;41082;52.822;6.666;2023-04-15T03:01:08;5.90;99.90
55211;DHT22;41082;52.822;6.666;2023-04-15T03:03:33;5.80;99.90
55211;DHT22;41082;52.822;6.666;2023-04-15T03:05:59;5.90;99.90
55211;DHT22;41082;52.822;6.666;2023-04-15T03:08:25;5.80;99.90
55211;DHT22;41082;52.822;6.666;2023-04-15T03:10:51;5.80;99.90
55211;DHT22;41082;52.822;6.666;2023-04-15T03:13:18;5.80;99.90
55211;DHT22;41082;52.822;6.666;2023-04-15T03:15:46;5.80;99.90
55211;DHT22;41082;52.822;6.666;2023-04-15T03:18:11;5.70;99.90
55211;DHT22;41082;52.822;6.666;2023-04-15T03:20:37;5.70;99.90
55211;DHT22;41082;52.822;6.666;2023-04-15T03:23:02;5.70;99.90
55211;DHT22;41082;52.822;6.666;2023-04-15T03:25:28;5.70;99.90
55211;DHT22;41082;52.822;6.666;2023-04-15T03:27:54;5.70;99.90
55211;DHT22;41082;52.822;6.666;2023-04-15T03:30:19;5.70;99.90
55211;DHT22;41082;52.822;6.666;2023-04-15T03:32:45;5.60;99.90
55211;DHT22;41082;52.822;6.666;2023-04-15T03:35:10;5.60;99.90
55211;DHT22;41082;52.822;6.666;2023-04-15T03:37:36;5.60;99.90
55211;DHT22;41082;52.822;6.666;2023-04-15T03:40:01;5.60;99.90
55211;DHT22;41082;52.822;6.666;2023-04-15T03:42:27;5.60;99.90
55211;DHT22;41082;52.822;6.666;2023-04-15T03:44:53;5.60;99.90
55211;DHT22;41082;52.822;6.666;2023-04-15T03:47:19;5.60;99.90
55211;DHT22;41082;52.822;6.666;2023-04-15T03:49:44;5.50;99.90
55211;DHT22;41082;52.822;6.666;2023-04-15T03:52:10;5.60;99.90
55211;DHT22;41082;52.822;6.666;2023-04-15T03:54:36;5.60;99.90
55211;DHT22;41082;52.822;6.666;2023-04-15T03:57:01;5.50;99.90
55211;DHT22;41082;52.822;6.666;2023-04-15T03:59:27;5.50;99.90
55211;DHT22;41082;52.822;6.666;2023-04-15T04:01:52;5.50;99.90
55211;DHT22;41082;52.822;6.666;2023-04-15T04:04:18;5.50;99.90
55211;DHT22;41082;52.822;6.666;2023-04-15T04:06:43;5.50;99.90
55211;DHT22;41082;52.822;6.666;2023-04-15T04:09:09;5.60;99.90
55211;DHT22;41082;52.822;6.666;2023-04-15T04:11:34;5.50;99.90
55211;DHT22;41082;52.822;6.666;2023-04-15T04:14:01;5.50;99.90
55211;DHT22;41082;52.822;6.666;2023-04-15T04:16:28;5.60;99.90
55211;DHT22;41082;52.822;6.666;2023-04-15T04:18:53;5.50;99.90
55211;DHT22;41082;52.822;6.666;2023-04-15T04:21:19;5.50;99.90
55211;DHT22;41082;52.822;6.666;2023-04-15T04:23:45;5.50;99.90
55211;DHT22;41082;52.822;6.666;2023-04-15T04:26:11;5.50;99.90
55211;DHT22;41082;52.822;6.666;2023-04-15T04:28:36;5.50;99.90
55211;DHT22;41082;52.822;6.666;2023-04-15T04:31:05;5.50;99.90
55211;DHT22;41082;52.822;6.666;2023-04-15T04:33:31;5.50;99.90
55211;DHT22;41082;52.822;6.666;2023-04-15T04:35:56;5.50;99.90
55211;DHT22;41082;52.822;6.666;2023-04-15T04:38:22;5.40;99.90
55211;DHT22;41082;52.822;6.666;2023-04-15T04:40:47;5.40;99.90
55211;DHT22;41082;52.822;6.666;2023-04-15T04:43:13;5.40;99.90
55211;DHT22;41082;52.822;6.666;2023-04-15T04:45:40;5.40;99.90
55211;DHT22;41082;52.822;6.666;2023-04-15T04:48:06;5.50;99.90
55211;DHT22;41082;52.822;6.666;2023-04-15T04:50:33;5.40;99.90
55211;DHT22;41082;52.822;6.666;2023-04-15T04:53:00;5.40;99.90
55211;DHT22;41082;52.822;6.666;2023-04-15T04:55:26;5.40;99.90
55211;DHT22;41082;52.822;6.666;2023-04-15T04:57:52;5.40;99.90
55211;DHT22;41082;52.822;6.666;2023-04-15T05:00:17;5.40;99.90
55211;DHT22;41082;52.822;6.666;2023-04-15T05:02:43;5.50;99.90
55211;DHT22;41082;52.822;6.666;2023-04-15T05:05:10;5.50;99.90
55211;DHT22;41082;52.822;6.666;2023-04-15T05:07:39;5.50;99.90
55211;DHT22;41082;52.822;6.666;2023-04-15T05:10:05;5.50;99.90
55211;DHT22;41082;52.822;6.666;2023-04-15T05:12:31;5.50;99.90
55211;DHT22;41082;52.822;6.666;2023-04-15T05:14:56;5.50;99.90
55211;DHT22;41082;52.822;6.666;2023-04-15T05:17:22;5.50;99.90
55211;DHT22;41082;52.822;6.666;2023-04-15T05:19:48;5.50;99.90
55211;DHT22;41082;52.822;6.666;2023-04-15T05:22:13;5.50;99.90
55211;DHT22;41082;52.822;6.666;2023-04-15T05:24:39;5.50;99.90
55211;DHT22;41082;52.822;6.666;2023-04-15T05:27:05;5.50;99.90
55211;DHT22;41082;52.822;6.666;2023-04-15T05:29:33;5.50;99.90
55211;DHT22;41082;52.822;6.666;2023-04-15T05:31:58;5.50;99.90
55211;DHT22;41082;52.822;6.666;2023-04-15T05:34:24;5.50;99.90
55211;DHT22;41082;52.822;6.666;2023-04-15T05:36:49;5.50;99.90
55211;DHT22;41082;52.822;6.666;2023-04-15T05:39:15;5.50;99.90
55211;DHT22;41082;52.822;6.666;2023-04-15T05:41:40;5.50;99.90
55211;DHT22;41082;52.822;6.666;2023-04-15T05:44:06;5.60;99.90
55211;DHT22;41082;52.822;6.666;2023-04-15T05:46:32;5.60;99.90
55211;DHT22;41082;52.822;6.666;2023-04-15T05:48:57;5.60;99.90
55211;DHT22;41082;52.822;6.666;2023-04-15T05:51:23;5.60;99.90
55211;DHT22;41082;52.822;6.666;2023-04-15T05:53:48;5.70;99.90
55211;DHT22;41082;52.822;6.666;2023-04-15T05:56:14;5.70;99.90
55211;DHT22;41082;52.822;6.666;2023-04-15T05:58:40;5.70;99.90
55211;DHT22;41082;52.822;6.666;2023-04-15T06:01:05;5.70;99.90
55211;DHT22;41082;52.822;6.666;2023-04-15T06:03:31;5.80;99.90
55211;DHT22;41082;52.822;6.666;2023-04-15T06:05:57;5.80;99.90
55211;DHT22;41082;52.822;6.666;2023-04-15T06:08:23;5.90;99.90
55211;DHT22;41082;52.822;6.666;2023-04-15T06:10:48;6.00;99.90
55211;DHT22;41082;52.822;6.666;2023-04-15T06:13:14;6.00;99.90
55211;DHT22;41082;52.822;6.666;2023-04-15T06:15:41;6.10;99.90
55211;DHT22;41082;52.822;6.666;2023-04-15T06:18:07;6.20;99.90
55211;DHT22;41082;52.822;6.666;2023-04-15T06:20:33;6.30;99.90
55211;DHT22;41082;52.822;6.666;2023-04-15T06:22:58;6.40;99.90
55211;DHT22;41082;52.822;6.666;2023-04-15T06:25:24;6.40;99.90
55211;DHT22;41082;52.822;6.666;2023-04-15T06:27:49;6.60;99.90
55211;DHT22;41082;52.822;6.666;2023-04-15T06:30:15;6.60;99.90
55211;DHT22;41082;52.822;6.666;2023-04-15T06:32:41;6.70;99.90
55211;DHT22;41082;52.822;6.666;2023-04-15T06:35:07;6.80;99.90
55211;DHT22;41082;52.822;6.666;2023-04-15T06:37:32;6.90;99.90
55211;DHT22;41082;52.822;6.666;2023-04-15T06:39:58;7.00;99.90
55211;DHT22;41082;52.822;6.666;2023-04-15T06:42:23;7.10;99.90
55211;DHT22;41082;52.822;6.666;2023-04-15T06:44:49;7.20;99.90
55211;DHT22;41082;52.822;6.666;2023-04-15T06:47:15;7.30;99.90
55211;DHT22;41082;52.822;6.666;2023-04-15T06:49:41;7.30;99.90
55211;DHT22;41082;52.822;6.666;2023-04-15T06:52:07;7.40;99.90
55211;DHT22;41082;52.822;6.666;2023-04-15T06:54:34;7.50;99.90
55211;DHT22;41082;52.822;6.666;2023-04-15T06:56:59;7.50;99.90
55211;DHT22;41082;52.822;6.666;2023-04-15T06:59:25;7.60;99.90
55211;DHT22;41082;52.822;6.666;2023-04-15T07:01:51;7.60;99.90
55211;DHT22;41082;52.822;6.666;2023-04-15T07:04:17;7.60;99.90
55211;DHT22;41082;52.822;6.666;2023-04-15T07:06:43;7.70;99.90
55211;DHT22;41082;52.822;6.666;2023-04-15T07:09:08;7.70;99.90
55211;DHT22;41082;52.822;6.666;2023-04-15T07:11:35;7.80;99.90
55211;DHT22;41082;52.822;6.666;2023-04-15T07:14:01;7.80;99.90
55211;DHT22;41082;52.822;6.666;2023-04-15T07:16:26;7.90;99.90
55211;DHT22;41082;52.822;6.666;2023-04-15T07:18:52;8.00;99.90
55211;DHT22;41082;52.822;6.666;2023-04-15T07:21:18;8.00;99.90
55211;DHT22;41082;52.822;6.666;2023-04-15T07:23:44;8.10;99.90
55211;DHT22;41082;52.822;6.666;2023-04-15T07:26:09;8.20;99.90
55211;DHT22;41082;52.822;6.666;2023-04-15T07:28:35;8.20;99.90
55211;DHT22;41082;52.822;6.666;2023-04-15T07:31:01;8.30;99.90
55211;DHT22;41082;52.822;6.666;2023-04-15T07:33:26;8.40;99.90
55211;DHT22;41082;52.822;6.666;2023-04-15T07:35:52;8.50;99.90
55211;DHT22;41082;52.822;6.666;2023-04-15T07:38:17;8.60;99.90
55211;DHT22;41082;52.822;6.666;2023-04-15T07:40:43;8.60;99.90
55211;DHT22;41082;52.822;6.666;2023-04-15T07:43:09;8.70;99.90
55211;DHT22;41082;52.822;6.666;2023-04-15T07:45:35;8.80;99.90
55211;DHT22;41082;52.822;6.666;2023-04-15T07:48:01;8.90;99.90
55211;DHT22;41082;52.822;6.666;2023-04-15T07:50:27;9.00;99.90
55211;DHT22;41082;52.822;6.666;2023-04-15T07:52:53;9.10;99.90
55211;DHT22;41082;52.822;6.666;2023-04-15T07:55:19;9.10;99.90
55211;DHT22;41082;52.822;6.666;2023-04-15T07:57:48;9.20;99.90
55211;DHT22;41082;52.822;6.666;2023-04-15T08:00:14;9.30;99.90
55211;DHT22;41082;52.822;6.666;2023-04-15T08:02:40;9.30;99.90
55211;DHT22;41082;52.822;6.666;2023-04-15T08:05:07;9.40;99.90
55211;DHT22;41082;52.822;6.666;2023-04-15T08:07:33;9.40;99.90
55211;DHT22;41082;52.822;6.666;2023-04-15T08:09:59;9.40;99.90
55211;DHT22;41082;52.822;6.666;2023-04-15T08:12:24;9.40;99.90
55211;DHT22;41082;52.822;6.666;2023-04-15T08:14:50;9.50;99.90
55211;DHT22;41082;52.822;6.666;2023-04-15T08:17:16;9.50;99.90
55211;DHT22;41082;52.822;6.666;2023-04-15T08:19:42;9.60;99.90
55211;DHT22;41082;52.822;6.666;2023-04-15T08:22:08;9.60;99.90
55211;DHT22;41082;52.822;6.666;2023-04-15T08:24:34;9.70;99.90
55211;DHT22;41082;52.822;6.666;2023-04-15T08:27:00;9.80;99.90
55211;DHT22;41082;52.822;6.666;2023-04-15T08:29:28;9.80;99.90
55211;DHT22;41082;52.822;6.666;2023-04-15T08:31:54;9.80;99.90
55211;DHT22;41082;52.822;6.666;2023-04-15T08:34:20;9.90;99.90
55211;DHT22;41082;52.822;6.666;2023-04-15T08:36:45;9.90;99.90
55211;DHT22;41082;52.822;6.666;2023-04-15T08:39:11;9.90;99.90
55211;DHT22;41082;52.822;6.666;2023-04-15T08:41:45;9.90;99.90
55211;DHT22;41082;52.822;6.666;2023-04-15T08:44:13;9.90;99.90
55211;DHT22;41082;52.822;6.666;2023-04-15T08:46:40;9.90;99.90
55211;DHT22;41082;52.822;6.666;2023-04-15T08:49:09;10.00;99.90
55211;DHT22;41082;52.822;6.666;2023-04-15T08:51:36;9.80;99.90
55211;DHT22;41082;52.822;6.666;2023-04-15T08:54:03;9.80;99.90
55211;DHT22;41082;52.822;6.666;2023-04-15T08:56:30;9.70;99.90
55211;DHT22;41082;52.822;6.666;2023-04-15T08:58:58;9.70;99.90
55211;DHT22;41082;52.822;6.666;2023-04-15T09:01:24;9.70;99.90
55211;DHT22;41082;52.822;6.666;2023-04-15T09:03:50;9.70;99.90
55211;DHT22;41082;52.822;6.666;2023-04-15T09:06:17;9.70;99.90
55211;DHT22;41082;52.822;6.666;2023-04-15T09:08:43;9.60;99.90
55211;DHT22;41082;52.822;6.666;2023-04-15T09:11:09;9.60;99.90
55211;DHT22;41082;52.822;6.666;2023-04-15T09:13:34;9.60;99.90
55211;DHT22;41082;52.822;6.666;2023-04-15T09:16:05;9.60;99.90
55211;DHT22;41082;52.822;6.666;2023-04-15T09:18:35;9.70;99.90
55211;DHT22;41082;52.822;6.666;2023-04-15T09:21:04;9.70;99.90
55211;DHT22;41082;52.822;6.666;2023-04-15T09:23:31;9.80;99.90
55211;DHT22;41082;52.822;6.666;2023-04-15T09:25:57;9.80;99.90
55211;DHT22;41082;52.822;6.666;2023-04-15T09:28:23;9.80;99.90
55211;DHT22;41082;52.822;6.666;2023-04-15T09:30:54;9.80;99.90
55211;DHT22;41082;52.822;6.666;2023-04-15T09:33:20;9.70;99.90
55211;DHT22;41082;52.822;6.666;2023-04-15T09:35:59;9.60;99.90
55211;DHT22;41082;52.822;6.666;2023-04-15T09:38:25;9.70;99.90
55211;DHT22;41082;52.822;6.666;2023-04-15T09:40:51;9.70;99.90
55211;DHT22;41082;52.822;6.666;2023-04-15T09:43:17;9.70;99.90
55211;DHT22;41082;52.822;6.666;2023-04-15T09:45:53;9.70;99.90
55211;DHT22;41082;52.822;6.666;2023-04-15T09:48:21;9.80;99.90
55211;DHT22;41082;52.822;6.666;2023-04-15T09:50:50;9.90;99.90
55211;DHT22;41082;52.822;6.666;2023-04-15T09:53:19;10.00;99.90
55211;DHT22;41082;52.822;6.666;2023-04-15T09:55:49;10.10;99.90
55211;DHT22;41082;52.822;6.666;2023-04-15T09:58:34;10.10;99.90
55211;DHT22;41082;52.822;6.666;2023-04-15T10:01:02;10.10;99.90
55211;DHT22;41082;52.822;6.666;2023-04-15T10:03:30;10.10;99.90
55211;DHT22;41082;52.822;6.666;2023-04-15T10:05:58;10.10;99.90
55211;DHT22;41082;52.822;6.666;2023-04-15T10:08:26;10.10;99.90
55211;DHT22;41082;52.822;6.666;2023-04-15T10:10:52;10.20;99.90
55211;DHT22;41082;52.822;6.666;2023-04-15T10:13:22;10.20;99.90
55211;DHT22;41082;52.822;6.666;2023-04-15T10:16:02;10.20;99.90
55211;DHT22;41082;52.822;6.666;2023-04-15T10:18:33;10.30;99.90
55211;DHT22;41082;52.822;6.666;2023-04-15T10:20:59;10.30;99.90
55211;DHT22;41082;52.822;6.666;2023-04-15T10:23:25;10.20;99.90
55211;DHT22;41082;52.822;6.666;2023-04-15T10:25:52;10.10;99.90
55211;DHT22;41082;52.822;6.666;2023-04-15T10:28:19;10.10;99.90
55211;DHT22;41082;52.822;6.666;2023-04-15T10:30:45;10.20;99.90
55211;DHT22;41082;52.822;6.666;2023-04-15T10:33:12;10.30;99.90
55211;DHT22;41082;52.822;6.666;2023-04-15T10:35:38;10.30;99.90
55211;DHT22;41082;52.822;6.666;2023-04-15T10:41:20;10.40;99.90
55211;DHT22;41082;52.822;6.666;2023-04-15T10:44:03;10.40;99.90
55211;DHT22;41082;52.822;6.666;2023-04-15T10:46:37;10.50;99.90
55211;DHT22;41082;52.822;6.666;2023-04-15T10:49:11;10.60;99.90
55211;DHT22;41082;52.822;6.666;2023-04-15T10:51:45;10.60;99.90
55211;DHT22;41082;52.822;6.666;2023-04-15T10:59:58;10.60;99.90
55211;DHT22;41082;52.822;6.666;2023-04-15T11:05:10;10.50;99.90
55211;DHT22;41082;52.822;6.666;2023-04-15T11:12:42;10.60;99.90
55211;DHT22;41082;52.822;6.666;2023-04-15T11:17:53;10.60;99.90
55211;DHT22;41082;52.822;6.666;2023-04-15T11:20:19;10.60;99.90
55211;DHT22;41082;52.822;6.666;2023-04-15T11:22:53;10.70;99.90
55211;DHT22;41082;52.822;6.666;2023-04-15T11:25:26;10.60;99.90
55211;DHT22;41082;52.822;6.666;2023-04-15T11:27:53;10.70;99.90
55211;DHT22;41082;52.822;6.666;2023-04-15T11:30:21;10.80;99.90
55211;DHT22;41082;52.822;6.666;2023-04-15T11:32:51;10.90;99.90
55211;DHT22;41082;52.822;6.666;2023-04-15T11:35:17;10.90;99.90
55211;DHT22;41082;52.822;6.666;2023-04-15T11:37:43;10.90;99.90
55211;DHT22;41082;52.822;6.666;2023-04-15T11:40:10;10.80;99.90
55211;DHT22;41082;52.822;6.666;2023-04-15T11:42:36;10.70;99.90
55211;DHT22;41082;52.822;6.666;2023-04-15T11:45:09;10.70;99.90
55211;DHT22;41082;52.822;6.666;2023-04-15T11:47:36;10.70;99.90
55211;DHT22;41082;52.822;6.666;2023-04-15T11:52:51;10.80;99.90
55211;DHT22;41082;52.822;6.666;2023-04-15T11:55:17;10.90;99.90
55211;DHT22;41082;52.822;6.666;2023-04-15T11:57:42;10.80;99.90
55211;DHT22;41082;52.822;6.666;2023-04-15T12:00:09;10.80;99.90
55211;DHT22;41082;52.822;6.666;2023-04-15T12:02:38;10.90;99.90
55211;DHT22;41082;52.822;6.666;2023-04-15T12:05:05;10.90;99.90
55211;DHT22;41082;52.822;6.666;2023-04-15T12:07:30;10.90;99.90
55211;DHT22;41082;52.822;6.666;2023-04-15T12:09:57;10.90;99.90
55211;DHT22;41082;52.822;6.666;2023-04-15T12:12:31;10.90;99.90
55211;DHT22;41082;52.822;6.666;2023-04-15T12:14:57;10.90;99.90
55211;DHT22;41082;52.822;6.666;2023-04-15T12:17:24;11.00;99.90
55211;DHT22;41082;52.822;6.666;2023-04-15T12:19:55;11.00;99.90
55211;DHT22;41082;52.822;6.666;2023-04-15T12:22:21;11.00;99.90
55211;DHT22;41082;52.822;6.666;2023-04-15T12:24:53;11.00;99.90
55211;DHT22;41082;52.822;6.666;2023-04-15T12:27:25;11.00;99.90
55211;DHT22;41082;52.822;6.666;2023-04-15T12:30:03;11.00;99.90
55211;DHT22;41082;52.822;6.666;2023-04-15T12:32:29;10.90;99.90
55211;DHT22;41082;52.822;6.666;2023-04-15T12:34:54;11.00;99.90
55211;DHT22;41082;52.822;6.666;2023-04-15T12:37:20;11.00;99.90
55211;DHT22;41082;52.822;6.666;2023-04-15T12:39:47;11.00;99.90
55211;DHT22;41082;52.822;6.666;2023-04-15T12:42:16;11.00;99.90
55211;DHT22;41082;52.822;6.666;2023-04-15T12:44:42;11.10;99.90
55211;DHT22;41082;52.822;6.666;2023-04-15T12:47:09;11.10;99.90
55211;DHT22;41082;52.822;6.666;2023-04-15T12:49:35;11.20;99.90
55211;DHT22;41082;52.822;6.666;2023-04-15T12:52:01;11.10;99.90
55211;DHT22;41082;52.822;6.666;2023-04-15T12:54:28;11.10;99.90
55211;DHT22;41082;52.822;6.666;2023-04-15T12:56:55;11.10;99.90
55211;DHT22;41082;52.822;6.666;2023-04-15T12:59:21;11.10;99.90
55211;DHT22;41082;52.822;6.666;2023-04-15T13:01:48;11.00;99.90
55211;DHT22;41082;52.822;6.666;2023-04-15T13:04:14;11.00;99.90
55211;DHT22;41082;52.822;6.666;2023-04-15T13:06:40;11.00;99.90
55211;DHT22;41082;52.822;6.666;2023-04-15T13:09:06;11.00;99.90
55211;DHT22;41082;52.822;6.666;2023-04-15T13:11:32;11.00;99.90
55211;DHT22;41082;52.822;6.666;2023-04-15T13:14:02;11.00;99.90
55211;DHT22;41082;52.822;6.666;2023-04-15T13:16:28;11.00;99.90
55211;DHT22;41082;52.822;6.666;2023-04-15T13:18:54;10.90;99.90
55211;DHT22;41082;52.822;6.666;2023-04-15T13:21:19;10.80;99.90
55211;DHT22;41082;52.822;6.666;2023-04-15T13:23:45;10.80;99.90
55211;DHT22;41082;52.822;6.666;2023-04-15T13:26:11;10.80;99.90
55211;DHT22;41082;52.822;6.666;2023-04-15T13:28:37;10.80;99.90
55211;DHT22;41082;52.822;6.666;2023-04-15T13:31:03;10.70;99.90
55211;DHT22;41082;52.822;6.666;2023-04-15T13:33:29;10.70;99.90
55211;DHT22;41082;52.822;6.666;2023-04-15T13:35:55;10.70;99.90
55211;DHT22;41082;52.822;6.666;2023-04-15T13:38:21;10.80;99.90
55211;DHT22;41082;52.822;6.666;2023-04-15T13:40:47;10.80;99.90
55211;DHT22;41082;52.822;6.666;2023-04-15T13:43:12;10.80;99.90
55211;DHT22;41082;52.822;6.666;2023-04-15T13:45:38;10.80;99.90
55211;DHT22;41082;52.822;6.666;2023-04-15T13:48:04;10.80;99.90
55211;DHT22;41082;52.822;6.666;2023-04-15T13:50:30;10.80;99.90
55211;DHT22;41082;52.822;6.666;2023-04-15T13:52:55;10.70;99.90
55211;DHT22;41082;52.822;6.666;2023-04-15T13:55:21;10.70;99.90
55211;DHT22;41082;52.822;6.666;2023-04-15T13:57:46;10.70;99.90
55211;DHT22;41082;52.822;6.666;2023-04-15T14:00:12;10.70;99.90
55211;DHT22;41082;52.822;6.666;2023-04-15T14:02:39;10.70;99.90
55211;DHT22;41082;52.822;6.666;2023-04-15T14:05:05;10.70;99.90
55211;DHT22;41082;52.822;6.666;2023-04-15T14:07:31;10.70;99.90
55211;DHT22;41082;52.822;6.666;2023-04-15T14:09:57;10.60;99.90
55211;DHT22;41082;52.822;6.666;2023-04-15T14:12:22;10.60;99.90
55211;DHT22;41082;52.822;6.666;2023-04-15T14:14:48;10.60;99.90
55211;DHT22;41082;52.822;6.666;2023-04-15T14:17:14;10.60;99.90
55211;DHT22;41082;52.822;6.666;2023-04-15T14:19:39;10.60;99.90
55211;DHT22;41082;52.822;6.666;2023-04-15T14:22:05;10.50;99.90
55211;DHT22;41082;52.822;6.666;2023-04-15T14:24:30;10.50;99.90
55211;DHT22;41082;52.822;6.666;2023-04-15T14:26:57;10.50;99.90
55211;DHT22;41082;52.822;6.666;2023-04-15T14:29:22;10.50;99.90
55211;DHT22;41082;52.822;6.666;2023-04-15T14:31:48;10.50;99.90
55211;DHT22;41082;52.822;6.666;2023-04-15T14:34:15;10.50;99.90
55211;DHT22;41082;52.822;6.666;2023-04-15T14:36:40;10.50;99.90
55211;DHT22;41082;52.822;6.666;2023-04-15T14:39:06;10.50;99.90
55211;DHT22;41082;52.822;6.666;2023-04-15T14:41:33;10.50;99.90
55211;DHT22;41082;52.822;6.666;2023-04-15T14:43:58;10.40;99.90
55211;DHT22;41082;52.822;6.666;2023-04-15T14:46:25;10.40;99.90
55211;DHT22;41082;52.822;6.666;2023-04-15T14:48:53;10.30;99.90
55211;DHT22;41082;52.822;6.666;2023-04-15T14:51:19;10.30;99.90
55211;DHT22;41082;52.822;6.666;2023-04-15T14:53:45;10.30;99.90
55211;DHT22;41082;52.822;6.666;2023-04-15T14:56:10;10.30;99.90
55211;DHT22;41082;52.822;6.666;2023-04-15T14:58:36;10.20;99.90
55211;DHT22;41082;52.822;6.666;2023-04-15T15:01:03;10.20;99.90
55211;DHT22;41082;52.822;6.666;2023-04-15T15:03:29;10.30;99.90
55211;DHT22;41082;52.822;6.666;2023-04-15T15:05:54;10.20;99.90
55211;DHT22;41082;52.822;6.666;2023-04-15T15:08:22;10.20;99.90
55211;DHT22;41082;52.822;6.666;2023-04-15T15:10:47;10.20;99.90
55211;DHT22;41082;52.822;6.666;2023-04-15T15:13:13;10.20;99.90
55211;DHT22;41082;52.822;6.666;2023-04-15T15:15:38;10.10;99.90
55211;DHT22;41082;52.822;6.666;2023-04-15T15:18:04;10.10;99.90
55211;DHT22;41082;52.822;6.666;2023-04-15T15:20:29;10.10;99.90
55211;DHT22;41082;52.822;6.666;2023-04-15T15:22:55;10.00;99.90
55211;DHT22;41082;52.822;6.666;2023-04-15T15:25:22;10.00;99.90
55211;DHT22;41082;52.822;6.666;2023-04-15T15:27:48;10.00;99.90
55211;DHT22;41082;52.822;6.666;2023-04-15T15:30:13;9.90;99.90
55211;DHT22;41082;52.822;6.666;2023-04-15T15:32:40;9.90;99.90
55211;DHT22;41082;52.822;6.666;2023-04-15T15:35:07;9.80;99.90
55211;DHT22;41082;52.822;6.666;2023-04-15T15:37:32;9.80;99.90
55211;DHT22;41082;52.822;6.666;2023-04-15T15:39:59;9.80;99.90
55211;DHT22;41082;52.822;6.666;2023-04-15T15:42:25;9.80;99.90
55211;DHT22;41082;52.822;6.666;2023-04-15T15:44:50;9.70;99.90
55211;DHT22;41082;52.822;6.666;2023-04-15T15:47:18;9.80;99.90
55211;DHT22;41082;52.822;6.666;2023-04-15T15:49:44;9.70;99.90
55211;DHT22;41082;52.822;6.666;2023-04-15T15:52:11;9.70;99.90
55211;DHT22;41082;52.822;6.666;2023-04-15T15:54:37;9.70;99.90
55211;DHT22;41082;52.822;6.666;2023-04-15T15:57:03;9.70;99.90